Pagrindinis puslapis
METAR-TAF:

METAR-TAF

Oro uostai :

Yanbu, Saudo Arabija

platuma: 24-09N, ilguma: 038-04E, Aukštis: 8 m

Dabartinis oras

Ataskaita buvo paskelbta 1 valandą ir 16 minutes, ne 22:00 UTC
Vėjas 8 kt iš Rytų
Temperatūra 30°C
Drėgmė 66%
Slėgis 1004 hPa
Matomumas 10 km arba daugiau
nėra debesų žemiau 1500 m ir nėra kamuolinių lietaus debesų

METAR: OEYN 242200Z 10008KT CAVOK 30/23 Q1004 NOSIG

Laikas: 02:16 (23:16 UTC)

Prognozė

Ataskaita buvo paskelbta 12 valandos ir 16 minutes, ne 11:00 UTC
Prognozė galioja nuo 24 metu 12 UTC su 25 metu 18 UTC
Vėjas 14 kt iš Vakarų
Matomumas 10 km arba daugiau
Mažai debesys ne aukštis 4000 ft
Tapsmas
nuo 24 metu 20 UTC su 24 metu 22 UTC
Vėjas 3 kt nuo kintamojo kryptimis
Matomumas 10 km arba daugiau
nėra debesų žemiau 1500 m ir nėra kamuolinių lietaus debesų
Tapsmas
nuo 25 metu 08 UTC su 25 metu 10 UTC
Vėjas 16 kt iš Vakarų

TAF: OEYN 241100Z 2412/2518 27014KT 9999 FEW040 BECMG 2420/2422 VRB03KT CAVOK BECMG 2508/2510 27016KT

Orai ataskaitas ir orų prognozės (METAR, TAF).

turimą stotys yra geltonos ir raudonos taškus žemėlapyje.

Perkelti pele per norėdami pamatyti stoties vardą.

Tada spustelėkite, norėdami matyti oro stebėjimo ir prognozės.

Norėdami pakeisti žemėlapį: spustelėkite ant žalios mygtukų su juodo kryžiaus žemyn,; žalią mygtuką su brūkšneliu, jei norite nutolinti; arba žalių rodyklių gretimoms žemėlapius.


METAR-TAF: